createdAt,value
2022-08-17T00:00:12.816Z,48.95
2022-08-17T00:02:41.134Z,48.75
2022-08-17T00:04:50.561Z,49.24
2022-08-17T00:06:55.579Z,49.58
2022-08-17T00:09:02.237Z,49.92
2022-08-17T00:11:08.909Z,49.57
2022-08-17T00:13:16.581Z,49.96
2022-08-17T00:15:22.856Z,49.75
2022-08-17T00:17:28.008Z,50.27
2022-08-17T00:19:35.302Z,50.37
2022-08-17T00:22:31.501Z,50.57
2022-08-17T00:24:07.823Z,50.41
2022-08-17T00:26:12.913Z,50.52
2022-08-17T00:28:19.554Z,50.87
2022-08-17T00:30:25.830Z,50.70
2022-08-17T00:33:13.838Z,51.07
2022-08-17T00:34:58.123Z,50.77
2022-08-17T00:37:02.945Z,50.76
2022-08-17T00:39:07.972Z,51.12
2022-08-17T00:41:14.919Z,51.35
2022-08-17T00:43:28.677Z,51.47
2022-08-17T00:45:33.501Z,51.63
2022-08-17T00:47:38.495Z,51.71
2022-08-17T00:49:43.398Z,51.56
2022-08-17T00:51:55.570Z,51.80
2022-08-17T00:54:11.891Z,51.94
2022-08-17T00:56:21.440Z,52.40
2022-08-17T00:58:36.099Z,52.25
2022-08-17T01:00:45.925Z,52.14
2022-08-17T01:02:51.638Z,52.73
2022-08-17T01:04:57.287Z,52.83
2022-08-17T01:07:07.165Z,53.00
2022-08-17T01:09:12.136Z,53.32
2022-08-17T01:11:17.323Z,53.22
2022-08-17T01:13:22.334Z,53.25
2022-08-17T01:15:27.336Z,53.24
2022-08-17T01:17:32.200Z,53.31
2022-08-17T01:19:39.440Z,53.69
2022-08-17T01:21:49.810Z,53.31
2022-08-17T01:23:57.382Z,53.03
2022-08-17T01:26:06.483Z,53.15
2022-08-17T01:28:11.449Z,53.04
2022-08-17T01:30:58.562Z,53.57
2022-08-17T01:33:01.478Z,53.70
2022-08-17T01:35:07.915Z,53.92
2022-08-17T01:37:13.341Z,53.60
2022-08-17T01:39:34.655Z,54.13
2022-08-17T01:41:41.081Z,54.38
2022-08-17T01:43:48.934Z,54.10
2022-08-17T01:46:03.833Z,53.92
2022-08-17T01:48:09.432Z,54.12
2022-08-17T01:50:17.469Z,54.37
2022-08-17T01:52:23.920Z,54.28
2022-08-17T01:54:31.397Z,54.12
2022-08-17T01:56:38.243Z,54.29
2022-08-17T01:58:45.777Z,54.39
2022-08-17T02:01:00.939Z,54.67
2022-08-17T02:03:08.489Z,54.31
2022-08-17T02:05:13.416Z,54.51
2022-08-17T02:07:18.266Z,54.62
2022-08-17T02:09:34.071Z,54.32
2022-08-17T02:11:40.559Z,54.50
2022-08-17T02:13:45.865Z,54.76
2022-08-17T02:15:50.954Z,55.11
2022-08-17T02:17:56.476Z,54.79
2022-08-17T02:20:01.469Z,55.31
2022-08-17T02:22:06.529Z,55.36
2022-08-17T02:24:14.985Z,55.05
2022-08-17T02:26:25.601Z,55.44
2022-08-17T02:28:32.189Z,55.59
2022-08-17T02:31:00.007Z,55.40
2022-08-17T02:33:04.328Z,55.52
2022-08-17T02:35:13.475Z,55.27
2022-08-17T02:37:19.818Z,55.34
2022-08-17T02:39:24.864Z,55.55
2022-08-17T02:41:32.393Z,55.28
2022-08-17T02:43:37.553Z,55.65
2022-08-17T02:45:42.073Z,55.45
2022-08-17T02:47:47.695Z,55.76
2022-08-17T02:49:54.338Z,55.82
2022-08-17T02:52:01.169Z,56.15
2022-08-17T02:54:40.415Z,56.30
2022-08-17T02:56:33.471Z,55.87
2022-08-17T02:58:38.394Z,56.01
2022-08-17T03:00:47.249Z,55.89
2022-08-17T03:02:53.170Z,55.94
2022-08-17T03:04:57.993Z,56.19
2022-08-17T03:07:02.844Z,56.19
2022-08-17T03:09:07.788Z,55.72
2022-08-17T03:11:13.050Z,56.27
2022-08-17T03:13:20.863Z,55.97
2022-08-17T03:15:27.906Z,56.09
2022-08-17T03:17:32.829Z,56.36
2022-08-17T03:19:37.673Z,56.34
2022-08-17T03:21:54.851Z,56.44
2022-08-17T03:24:00.445Z,56.58
2022-08-17T03:26:05.301Z,56.59
2022-08-17T03:28:17.259Z,56.55
2022-08-17T03:30:25.406Z,56.75
2022-08-17T03:32:30.303Z,56.53
2022-08-17T03:34:35.193Z,57.11
2022-08-17T03:36:40.084Z,56.70
2022-08-17T03:38:45.102Z,56.56
2022-08-17T03:40:57.564Z,56.46
2022-08-17T03:43:09.107Z,56.87
2022-08-17T03:45:17.063Z,56.78
2022-08-17T03:47:38.077Z,56.67
2022-08-17T03:49:58.602Z,57.03
2022-08-17T03:52:15.855Z,56.84
2022-08-17T03:54:33.201Z,57.19
2022-08-17T03:56:47.184Z,57.08
2022-08-17T03:58:53.042Z,57.39
2022-08-17T04:00:58.769Z,57.36
2022-08-17T04:03:06.919Z,57.51
2022-08-17T04:05:15.069Z,57.37
2022-08-17T04:07:20.579Z,57.23
2022-08-17T04:09:25.456Z,57.22
2022-08-17T04:11:30.503Z,57.12
2022-08-17T04:13:35.442Z,56.84
2022-08-17T04:15:40.220Z,57.11
2022-08-17T04:17:45.911Z,56.84
2022-08-17T04:19:53.393Z,56.75
2022-08-17T04:21:58.313Z,56.96
2022-08-17T04:24:03.641Z,56.80
2022-08-17T04:26:08.927Z,57.22
2022-08-17T04:28:16.249Z,57.46
2022-08-17T04:30:21.430Z,57.68
2022-08-17T04:33:03.691Z,57.86
2022-08-17T04:34:53.893Z,57.80
2022-08-17T04:36:58.729Z,57.91
2022-08-17T04:39:04.558Z,58.09
2022-08-17T04:41:28.642Z,57.73
2022-08-17T04:43:35.634Z,57.78
2022-08-17T04:45:55.422Z,57.47
2022-08-17T04:48:01.336Z,57.26
2022-08-17T04:50:10.126Z,57.22
2022-08-17T04:52:29.875Z,57.32
2022-08-17T04:54:40.244Z,56.42
2022-08-17T04:56:45.850Z,56.47
2022-08-17T04:58:52.752Z,56.55
2022-08-17T05:00:57.662Z,56.47
2022-08-17T05:03:02.941Z,56.88
2022-08-17T05:05:11.537Z,56.86
2022-08-17T05:07:23.079Z,57.01
2022-08-17T05:09:29.120Z,57.36
2022-08-17T05:11:33.986Z,57.29
2022-08-17T05:13:38.938Z,57.16
2022-08-17T05:15:45.336Z,56.67
2022-08-17T05:17:52.851Z,56.77
2022-08-17T05:19:57.677Z,56.55
2022-08-17T05:22:07.804Z,56.72
2022-08-17T05:24:38.671Z,57.19
2022-08-17T05:26:38.093Z,56.99
2022-08-17T05:28:43.380Z,57.00
2022-08-17T05:30:51.651Z,56.87
2022-08-17T05:32:58.973Z,56.50
2022-08-17T05:35:03.937Z,56.41
2022-08-17T05:37:11.367Z,56.57
2022-08-17T05:39:17.510Z,56.42
2022-08-17T05:41:22.387Z,56.63
2022-08-17T05:43:29.804Z,56.59
2022-08-17T05:45:55.448Z,56.54
2022-08-17T05:48:00.851Z,56.59
2022-08-17T05:50:09.552Z,56.10
2022-08-17T05:52:25.654Z,56.06
2022-08-17T05:54:41.828Z,55.36
2022-08-17T05:57:16.677Z,54.83
2022-08-17T05:59:36.506Z,54.81
2022-08-17T06:01:50.851Z,54.30
2022-08-17T06:04:03.766Z,53.42
2022-08-17T06:06:31.606Z,53.07
2022-08-17T06:08:51.747Z,51.93
2022-08-17T06:11:05.508Z,51.91
2022-08-17T06:13:20.489Z,51.81
2022-08-17T06:15:33.773Z,52.19
2022-08-17T06:17:39.836Z,52.50
2022-08-17T06:19:48.667Z,52.31
2022-08-17T06:21:56.584Z,51.74
2022-08-17T06:24:08.705Z,51.92
2022-08-17T06:26:19.255Z,51.03
2022-08-17T06:28:33.113Z,51.17
2022-08-17T06:31:00.241Z,50.99
2022-08-17T06:33:09.675Z,50.60
2022-08-17T06:35:17.132Z,49.44
2022-08-17T06:37:48.980Z,48.93
2022-08-17T06:40:03.801Z,49.16
2022-08-17T06:43:02.398Z,49.52
2022-08-17T06:44:51.773Z,49.55
2022-08-17T06:47:09.077Z,50.15
2022-08-17T06:49:26.027Z,49.83
2022-08-17T06:51:35.947Z,49.83
2022-08-17T06:53:45.938Z,49.26
2022-08-17T06:56:01.428Z,49.71
2022-08-17T06:58:16.482Z,49.40
2022-08-17T07:00:25.037Z,48.94
2022-08-17T07:02:52.382Z,48.73
2022-08-17T07:04:58.259Z,49.09
2022-08-17T07:07:26.842Z,48.56
2022-08-17T07:09:37.229Z,48.34
2022-08-17T07:11:53.223Z,47.89
2022-08-17T07:14:13.951Z,47.76
2022-08-17T07:16:27.647Z,47.55
2022-08-17T07:18:34.777Z,47.49
2022-08-17T07:20:45.977Z,47.50
2022-08-17T07:22:59.661Z,47.03
2022-08-17T07:25:08.541Z,47.17
2022-08-17T07:27:21.381Z,46.74
2022-08-17T07:29:27.151Z,46.88
2022-08-17T07:31:34.082Z,46.61
2022-08-17T07:33:41.085Z,46.31
2022-08-17T07:35:48.509Z,46.01
2022-08-17T07:38:07.241Z,45.62
2022-08-17T07:40:35.997Z,45.55
2022-08-17T07:42:46.703Z,45.31
2022-08-17T07:44:58.071Z,45.03
2022-08-17T07:47:15.431Z,44.74
2022-08-17T07:49:37.187Z,43.68
2022-08-17T07:51:55.741Z,43.55
2022-08-17T07:54:14.578Z,43.64
2022-08-17T07:56:40.534Z,42.80
2022-08-17T07:58:49.068Z,43.23
2022-08-17T08:01:09.915Z,42.01
2022-08-17T08:03:18.942Z,41.53
2022-08-17T08:05:31.715Z,41.49
2022-08-17T08:07:56.430Z,41.24
2022-08-17T08:10:12.923Z,40.83
2022-08-17T08:12:33.417Z,39.54
2022-08-17T08:14:43.653Z,39.56
2022-08-17T08:17:00.122Z,38.84
2022-08-17T08:19:05.329Z,38.55
2022-08-17T08:21:15.463Z,38.32
2022-08-17T08:23:29.649Z,38.47
2022-08-17T08:25:53.591Z,38.40
2022-08-17T08:28:10.380Z,38.31
2022-08-17T08:30:21.490Z,37.66
2022-08-17T08:32:42.953Z,37.88
2022-08-17T08:35:03.383Z,37.50
2022-08-17T08:37:30.126Z,37.74
2022-08-17T08:39:46.632Z,37.85
2022-08-17T08:42:01.895Z,37.28
2022-08-17T08:44:17.215Z,37.30
2022-08-17T08:46:35.606Z,37.33
2022-08-17T08:49:14.536Z,37.03
2022-08-17T08:51:29.633Z,36.93
2022-08-17T08:53:43.324Z,36.80
2022-08-17T08:55:55.846Z,35.74
2022-08-17T08:58:05.881Z,35.90
2022-08-17T09:00:16.588Z,35.81
2022-08-17T09:02:37.797Z,34.94
2022-08-17T09:05:13.959Z,34.42
2022-08-17T09:07:31.538Z,33.98
2022-08-17T09:09:48.263Z,34.18
2022-08-17T09:12:04.111Z,33.90
2022-08-17T09:14:21.581Z,33.92
2022-08-17T09:16:37.001Z,33.92
2022-08-17T09:19:03.606Z,32.59
2022-08-17T09:21:19.491Z,33.19
2022-08-17T09:23:34.461Z,32.83
2022-08-17T09:25:50.535Z,32.42
2022-08-17T09:28:00.668Z,32.59
2022-08-17T09:30:12.017Z,31.85
2022-08-17T09:32:22.273Z,32.09
2022-08-17T09:34:38.325Z,31.48
2022-08-17T09:36:48.191Z,31.86
2022-08-17T09:39:02.760Z,31.42
2022-08-17T09:41:15.139Z,31.46
2022-08-17T09:43:28.932Z,31.18
2022-08-17T09:45:37.531Z,30.68
2022-08-17T09:47:51.137Z,30.07
2022-08-17T09:50:04.565Z,29.32
2022-08-17T09:52:18.745Z,28.81
2022-08-17T09:54:40.383Z,28.49
2022-08-17T09:57:25.709Z,28.44
2022-08-17T09:59:41.898Z,28.65
2022-08-17T10:01:54.513Z,28.70
2022-08-17T10:04:14.299Z,28.39
2022-08-17T10:06:27.411Z,28.21
2022-08-17T10:08:42.526Z,28.35
2022-08-17T10:10:58.931Z,28.52
2022-08-17T10:13:13.835Z,28.13
2022-08-17T10:15:27.586Z,28.49
2022-08-17T10:17:39.315Z,27.61
2022-08-17T10:19:54.412Z,27.54
2022-08-17T10:22:34.665Z,26.91
2022-08-17T10:25:21.174Z,27.51
2022-08-17T10:27:28.114Z,26.57
2022-08-17T10:29:49.152Z,25.89
2022-08-17T10:32:00.708Z,25.25
2022-08-17T10:34:38.806Z,25.83
2022-08-17T10:36:57.578Z,26.59
2022-08-17T10:39:13.869Z,26.37
2022-08-17T10:41:29.504Z,26.36
2022-08-17T10:44:37.560Z,25.75
2022-08-17T10:46:31.371Z,25.45
2022-08-17T10:48:39.348Z,25.55
2022-08-17T10:51:01.152Z,25.37
2022-08-17T10:53:05.979Z,25.41
2022-08-17T10:55:17.959Z,25.20
2022-08-17T10:57:41.962Z,24.83
2022-08-17T10:59:56.385Z,24.65
2022-08-17T11:02:17.016Z,24.24
2022-08-17T11:04:33.089Z,23.36
2022-08-17T11:06:48.247Z,23.46
2022-08-17T11:09:26.511Z,22.90
2022-08-17T11:12:02.680Z,22.78
2022-08-17T11:14:18.991Z,22.67
2022-08-17T11:16:47.987Z,23.39
2022-08-17T11:19:15.003Z,22.52
2022-08-17T11:21:42.440Z,22.57
2022-08-17T11:24:03.564Z,23.17
2022-08-17T11:26:26.312Z,22.71
2022-08-17T11:28:37.338Z,22.62
2022-08-17T11:30:49.857Z,23.00
2022-08-17T11:32:57.642Z,23.70
2022-08-17T11:35:29.720Z,23.75
2022-08-17T11:37:52.276Z,23.84
2022-08-17T11:40:18.021Z,24.02
2022-08-17T11:42:30.524Z,23.30
2022-08-17T11:44:53.232Z,22.87
2022-08-17T11:47:24.310Z,23.51
2022-08-17T11:49:52.180Z,23.13
2022-08-17T11:52:13.263Z,23.12
2022-08-17T11:54:40.340Z,21.89
2022-08-17T11:56:49.186Z,22.18
2022-08-17T11:58:54.191Z,21.26
2022-08-17T12:01:03.973Z,21.75
2022-08-17T12:03:28.220Z,21.92
2022-08-17T12:05:37.804Z,21.85
2022-08-17T12:07:47.901Z,21.96
2022-08-17T12:09:57.319Z,22.28
2022-08-17T12:12:12.347Z,22.15
2022-08-17T12:14:39.921Z,21.76
2022-08-17T12:17:01.739Z,21.75
2022-08-17T12:19:08.317Z,21.43
2022-08-17T12:21:31.073Z,21.65
2022-08-17T12:23:44.470Z,21.50
2022-08-17T12:25:56.897Z,21.95
2022-08-17T12:28:06.666Z,21.60
2022-08-17T12:30:16.811Z,21.41
2022-08-17T12:32:25.311Z,21.28
2022-08-17T12:34:44.142Z,21.06
2022-08-17T12:36:53.012Z,20.97
2022-08-17T12:39:13.074Z,20.76
2022-08-17T12:41:34.338Z,20.67
2022-08-17T12:43:39.179Z,20.94
2022-08-17T12:45:44.308Z,21.10
2022-08-17T12:48:07.118Z,21.09
2022-08-17T12:50:29.238Z,20.72
2022-08-17T12:52:36.117Z,20.86
2022-08-17T12:54:50.848Z,21.07
2022-08-17T12:56:56.137Z,21.44
2022-08-17T12:59:02.345Z,21.70
2022-08-17T13:01:11.622Z,21.41
2022-08-17T13:03:21.924Z,21.51
2022-08-17T13:05:31.647Z,21.21
2022-08-17T13:07:39.254Z,20.94
2022-08-17T13:09:53.714Z,21.20
2022-08-17T13:12:01.801Z,21.23
2022-08-17T13:14:13.132Z,21.08
2022-08-17T13:16:20.961Z,21.11
2022-08-17T13:18:45.214Z,21.28
2022-08-17T13:20:54.559Z,21.47
2022-08-17T13:23:01.437Z,22.41
2022-08-17T13:25:09.558Z,22.60
2022-08-17T13:27:18.941Z,23.07
2022-08-17T13:29:29.795Z,23.40
2022-08-17T13:31:52.968Z,24.00
2022-08-17T13:34:22.140Z,23.69
2022-08-17T13:36:33.676Z,23.64
2022-08-17T13:38:45.720Z,23.58
2022-08-17T13:40:54.324Z,24.33
2022-08-17T13:43:00.212Z,24.39
2022-08-17T13:45:32.349Z,24.40
2022-08-17T13:47:31.036Z,24.67
2022-08-17T13:49:48.384Z,24.49
2022-08-17T13:52:01.845Z,24.87
2022-08-17T13:54:11.382Z,24.82
2022-08-17T13:56:37.969Z,24.58
2022-08-17T13:58:55.794Z,24.46
2022-08-17T14:01:01.759Z,24.37
2022-08-17T14:03:08.401Z,24.07
2022-08-17T14:05:15.911Z,24.02
2022-08-17T14:07:30.252Z,24.41
2022-08-17T14:09:37.730Z,24.26
2022-08-17T14:11:42.807Z,24.07
2022-08-17T14:13:47.945Z,24.40
2022-08-17T14:15:56.282Z,23.67
2022-08-17T14:18:01.740Z,22.93
2022-08-17T14:20:09.530Z,22.73
2022-08-17T14:22:23.803Z,22.34
2022-08-17T14:24:31.634Z,22.92
2022-08-17T14:26:36.475Z,22.99
2022-08-17T14:28:49.407Z,23.09
2022-08-17T14:30:59.636Z,23.30
2022-08-17T14:33:06.017Z,22.99
2022-08-17T14:35:14.733Z,22.61
2022-08-17T14:37:26.444Z,22.60
2022-08-17T14:39:32.931Z,23.70
2022-08-17T14:41:38.227Z,24.14
2022-08-17T14:43:43.076Z,25.46
2022-08-17T14:45:48.038Z,26.40
2022-08-17T14:47:52.919Z,26.62
2022-08-17T14:50:02.173Z,26.98
2022-08-17T14:52:07.423Z,26.88
2022-08-17T14:54:29.401Z,26.65
2022-08-17T14:56:38.861Z,26.57
2022-08-17T14:58:43.989Z,27.27
2022-08-17T15:00:51.059Z,27.31
2022-08-17T15:02:58.592Z,27.07
2022-08-17T15:05:05.309Z,27.72
2022-08-17T15:07:10.937Z,27.18
2022-08-17T15:09:19.450Z,27.84
2022-08-17T15:11:24.664Z,28.28
2022-08-17T15:13:29.993Z,28.55
2022-08-17T15:15:34.960Z,28.64
2022-08-17T15:17:44.982Z,28.09
2022-08-17T15:19:50.722Z,28.27
2022-08-17T15:21:55.721Z,28.07
2022-08-17T15:24:00.367Z,27.78
2022-08-17T15:26:07.992Z,27.91
2022-08-17T15:28:13.188Z,28.18
2022-08-17T15:30:18.226Z,28.15
2022-08-17T15:32:30.236Z,28.07
2022-08-17T15:34:35.213Z,28.21
2022-08-17T15:36:45.491Z,27.81
2022-08-17T15:38:54.552Z,27.94
2022-08-17T15:41:00.398Z,27.52
2022-08-17T15:43:11.746Z,27.61
2022-08-17T15:45:17.079Z,27.32
2022-08-17T15:47:21.891Z,26.90
2022-08-17T15:49:26.538Z,26.62
2022-08-17T15:51:33.743Z,26.67
2022-08-17T15:53:40.137Z,26.51
2022-08-17T15:55:45.032Z,26.83
2022-08-17T15:57:50.116Z,26.57
2022-08-17T15:59:59.635Z,26.86
2022-08-17T16:03:14.921Z,27.07
2022-08-17T16:04:31.868Z,27.06
2022-08-17T16:06:37.403Z,27.16
2022-08-17T16:08:44.235Z,27.36
2022-08-17T16:10:49.877Z,27.45
2022-08-17T16:12:55.598Z,27.74
2022-08-17T16:15:03.663Z,27.53
2022-08-17T16:17:39.085Z,27.41
2022-08-17T16:19:35.902Z,27.34
2022-08-17T16:21:42.633Z,27.52
2022-08-17T16:23:48.219Z,27.92
2022-08-17T16:25:54.389Z,28.03
2022-08-17T16:27:59.721Z,28.09
2022-08-17T16:30:08.264Z,28.22
2022-08-17T16:32:16.205Z,28.25
2022-08-17T16:34:21.588Z,28.46
2022-08-17T16:36:26.487Z,28.49
2022-08-17T16:38:31.030Z,28.32
2022-08-17T16:40:36.494Z,28.41
2022-08-17T16:42:41.702Z,28.64
2022-08-17T16:44:46.646Z,28.45
2022-08-17T16:46:53.989Z,28.22
2022-08-17T16:49:00.697Z,28.79
2022-08-17T16:51:05.517Z,28.55
2022-08-17T16:53:11.050Z,28.71
2022-08-17T16:55:16.349Z,28.78
2022-08-17T16:57:21.292Z,28.69
2022-08-17T16:59:31.337Z,29.05
2022-08-17T17:01:44.498Z,29.28
2022-08-17T17:03:58.117Z,29.36
2022-08-17T17:06:13.682Z,29.68
2022-08-17T17:08:28.019Z,29.78
2022-08-17T17:10:40.293Z,29.82
2022-08-17T17:13:01.019Z,29.71
2022-08-17T17:15:09.750Z,29.57
2022-08-17T17:17:22.336Z,30.39
2022-08-17T17:19:38.204Z,30.44
2022-08-17T17:21:49.689Z,30.06
2022-08-17T17:23:59.825Z,30.54
2022-08-17T17:26:14.679Z,30.75
2022-08-17T17:28:27.587Z,30.43
2022-08-17T17:30:40.561Z,30.97
2022-08-17T17:32:52.058Z,30.87
2022-08-17T17:35:06.444Z,30.85
2022-08-17T17:37:17.800Z,31.33
2022-08-17T17:39:30.904Z,31.54
2022-08-17T17:41:43.297Z,31.20
2022-08-17T17:43:49.427Z,31.78
2022-08-17T17:46:07.592Z,31.59
2022-08-17T17:48:26.565Z,31.90
2022-08-17T17:50:39.993Z,32.01
2022-08-17T17:52:54.544Z,31.66
2022-08-17T17:55:09.165Z,32.22
2022-08-17T17:57:24.679Z,32.36
2022-08-17T17:59:32.199Z,32.41
2022-08-17T18:01:47.810Z,32.34
2022-08-17T18:04:08.338Z,32.37
2022-08-17T18:06:39.903Z,32.63
2022-08-17T18:09:06.331Z,32.81
2022-08-17T18:11:24.575Z,32.55
2022-08-17T18:13:39.398Z,33.25
2022-08-17T18:15:51.078Z,33.05
2022-08-17T18:18:24.761Z,33.15
2022-08-17T18:20:32.380Z,33.09
2022-08-17T18:22:50.583Z,33.40
2022-08-17T18:24:58.924Z,33.05
2022-08-17T18:27:08.340Z,33.14
2022-08-17T18:29:25.952Z,33.63
2022-08-17T18:31:31.175Z,33.79
2022-08-17T18:33:37.052Z,33.96
2022-08-17T18:35:42.066Z,33.65
2022-08-17T18:37:51.729Z,33.85
2022-08-17T18:39:56.861Z,34.01
2022-08-17T18:42:04.857Z,34.04
2022-08-17T18:44:26.496Z,33.87
2022-08-17T18:46:35.311Z,33.78
2022-08-17T18:48:59.096Z,34.32
2022-08-17T18:51:26.363Z,34.74
2022-08-17T18:54:12.079Z,34.94
2022-08-17T18:56:35.807Z,34.91
2022-08-17T18:58:40.757Z,35.18
2022-08-17T19:00:46.536Z,35.41
2022-08-17T19:02:54.760Z,35.25
2022-08-17T19:05:03.950Z,35.52
2022-08-17T19:07:13.278Z,35.72
2022-08-17T19:09:35.513Z,35.78
2022-08-17T19:11:42.045Z,35.97
2022-08-17T19:13:54.584Z,36.10
2022-08-17T19:16:15.070Z,36.09
2022-08-17T19:18:26.983Z,36.33
2022-08-17T19:20:35.415Z,36.38
2022-08-17T19:22:51.913Z,36.08
2022-08-17T19:25:12.171Z,36.25
2022-08-17T19:27:25.523Z,36.67
2022-08-17T19:29:45.928Z,36.42
2022-08-17T19:31:51.102Z,36.63
2022-08-17T19:33:57.013Z,36.97
2022-08-17T19:36:09.885Z,37.01
2022-08-17T19:38:27.812Z,36.75
2022-08-17T19:40:52.987Z,37.25
2022-08-17T19:43:03.018Z,37.46
2022-08-17T19:45:17.571Z,37.23
2022-08-17T19:47:53.704Z,37.59
2022-08-17T19:50:05.816Z,37.44
2022-08-17T19:52:30.958Z,37.81
2022-08-17T19:54:43.272Z,37.89
2022-08-17T19:56:57.985Z,37.55
2022-08-17T19:59:12.751Z,38.04
2022-08-17T20:01:23.444Z,38.03
2022-08-17T20:03:34.863Z,37.83
2022-08-17T20:06:01.435Z,37.99
2022-08-17T20:08:14.833Z,38.15
2022-08-17T20:10:29.067Z,38.37
2022-08-17T20:12:39.504Z,38.56
2022-08-17T20:14:53.594Z,38.48
2022-08-17T20:17:02.748Z,38.63
2022-08-17T20:19:11.224Z,38.65
2022-08-17T20:21:21.127Z,38.75
2022-08-17T20:23:48.364Z,38.97
2022-08-17T20:26:00.945Z,38.62
2022-08-17T20:28:27.980Z,38.58
2022-08-17T20:30:40.379Z,38.58
2022-08-17T20:32:55.543Z,38.28
2022-08-17T20:35:11.428Z,38.65
2022-08-17T20:37:30.782Z,38.96
2022-08-17T20:39:39.913Z,39.14
2022-08-17T20:42:07.823Z,39.00
2022-08-17T20:44:34.729Z,39.55
2022-08-17T20:47:04.029Z,39.73
2022-08-17T20:49:23.552Z,39.97
2022-08-17T20:51:38.651Z,40.37
2022-08-17T20:54:09.566Z,40.32
2022-08-17T20:56:34.457Z,40.78
2022-08-17T20:58:47.273Z,40.92
2022-08-17T21:01:13.951Z,40.54
2022-08-17T21:03:54.271Z,40.65
2022-08-17T21:06:03.624Z,40.50
2022-08-17T21:08:22.237Z,40.39
2022-08-17T21:10:38.342Z,40.65
2022-08-17T21:12:48.080Z,40.68
2022-08-17T21:15:04.868Z,40.51
2022-08-17T21:17:38.200Z,40.39
2022-08-17T21:20:10.977Z,40.46
2022-08-17T21:22:31.219Z,40.57
2022-08-17T21:24:46.340Z,40.83
2022-08-17T21:27:04.582Z,40.80
2022-08-17T21:29:29.935Z,40.95
2022-08-17T21:31:39.283Z,40.98
2022-08-17T21:34:21.648Z,40.97
2022-08-17T21:36:29.981Z,40.80
2022-08-17T21:38:39.083Z,41.02
2022-08-17T21:40:50.108Z,40.93
2022-08-17T21:42:58.281Z,41.22
2022-08-17T21:45:12.355Z,41.22
2022-08-17T21:47:24.692Z,41.60
2022-08-17T21:49:36.667Z,41.47
2022-08-17T21:51:47.273Z,41.34
2022-08-17T21:53:55.937Z,41.25
2022-08-17T21:56:00.965Z,41.74
2022-08-17T21:58:14.149Z,41.95
2022-08-17T22:00:29.514Z,41.53
2022-08-17T22:02:37.207Z,41.78
2022-08-17T22:04:45.961Z,41.62
2022-08-17T22:06:57.308Z,41.66
2022-08-17T22:09:21.820Z,41.67
2022-08-17T22:11:26.868Z,41.52
2022-08-17T22:13:31.611Z,41.49
2022-08-17T22:15:39.921Z,41.59
2022-08-17T22:17:47.671Z,41.41
2022-08-17T22:19:57.772Z,41.01
2022-08-17T22:22:06.409Z,41.20
2022-08-17T22:24:21.686Z,41.00
2022-08-17T22:26:29.022Z,41.10
2022-08-17T22:28:42.883Z,40.92
2022-08-17T22:31:04.399Z,41.14
2022-08-17T22:33:39.721Z,41.41
2022-08-17T22:35:48.015Z,41.58
2022-08-17T22:37:50.569Z,41.51
2022-08-17T22:40:02.363Z,41.61
2022-08-17T22:42:08.562Z,40.94
2022-08-17T22:44:24.210Z,41.40
2022-08-17T22:46:29.242Z,41.77
2022-08-17T22:48:34.241Z,41.32
2022-08-17T22:50:42.117Z,41.43
2022-08-17T22:53:12.282Z,41.11
2022-08-17T22:55:31.900Z,41.22
2022-08-17T22:57:50.242Z,41.49
2022-08-17T22:59:57.612Z,41.47
2022-08-17T23:02:25.763Z,41.52
2022-08-17T23:04:36.382Z,41.11
2022-08-17T23:06:43.198Z,41.62
2022-08-17T23:08:54.885Z,41.46
2022-08-17T23:11:01.252Z,41.18
2022-08-17T23:13:06.617Z,41.29
2022-08-17T23:15:15.813Z,41.30
2022-08-17T23:17:21.039Z,41.40
2022-08-17T23:19:26.494Z,41.12
2022-08-17T23:21:32.324Z,41.28
2022-08-17T23:23:42.073Z,41.41
2022-08-17T23:25:49.746Z,41.29
2022-08-17T23:27:54.590Z,41.20
2022-08-17T23:29:59.525Z,41.09
2022-08-17T23:32:04.938Z,41.50
2022-08-17T23:34:14.735Z,41.60
2022-08-17T23:36:19.857Z,41.54
2022-08-17T23:38:27.187Z,41.72
2022-08-17T23:40:32.776Z,41.76
2022-08-17T23:42:46.312Z,41.92
2022-08-17T23:44:52.310Z,41.95
2022-08-17T23:46:57.511Z,42.22
2022-08-17T23:49:03.317Z,42.21
2022-08-17T23:51:12.303Z,42.50
2022-08-17T23:53:17.786Z,42.17
2022-08-17T23:55:22.736Z,42.14
2022-08-17T23:57:33.450Z,42.17
2022-08-17T23:59:43.957Z,41.94
